createdAt,value
2019-03-10T00:00:53.100Z,3.15
2019-03-10T00:03:46.410Z,3.33
2019-03-10T00:06:42.022Z,2.02
2019-03-10T00:09:35.079Z,3.72
2019-03-10T00:12:27.910Z,2.67
2019-03-10T00:15:21.192Z,1.60
2019-03-10T00:18:14.000Z,1.87
2019-03-10T00:21:07.815Z,1.75
2019-03-10T00:24:00.615Z,2.27
2019-03-10T00:26:53.414Z,1.40
2019-03-10T00:29:46.214Z,3.42
2019-03-10T00:32:39.271Z,2.22
2019-03-10T00:35:33.355Z,2.05
2019-03-10T00:38:26.406Z,1.67
2019-03-10T00:41:36.870Z,1.05
2019-03-10T00:44:39.654Z,2.08
2019-03-10T00:47:43.976Z,1.45
2019-03-10T00:50:57.256Z,2.25
2019-03-10T00:53:50.059Z,1.57
2019-03-10T00:56:43.112Z,1.95
2019-03-10T00:59:35.913Z,0.70
2019-03-10T01:02:29.736Z,1.02
2019-03-10T01:05:22.538Z,1.25
2019-03-10T01:08:15.336Z,0.78
2019-03-10T01:11:08.395Z,0.70
2019-03-10T01:14:01.448Z,0.78
2019-03-10T01:16:54.545Z,0.98
2019-03-10T01:19:47.580Z,0.82
2019-03-10T01:22:40.359Z,0.68
2019-03-10T01:25:29.581Z,0.72
2019-03-10T01:28:22.386Z,1.37
2019-03-10T01:31:23.624Z,0.72
2019-03-10T01:34:31.272Z,0.68
2019-03-10T01:37:24.071Z,0.47
2019-03-10T01:40:16.879Z,0.55
2019-03-10T01:43:09.931Z,1.47
2019-03-10T01:46:03.006Z,1.00
2019-03-10T01:48:55.785Z,0.60
2019-03-10T01:51:48.589Z,0.60
2019-03-10T01:54:41.895Z,0.60
2019-03-10T01:57:34.696Z,0.40
2019-03-10T02:00:27.498Z,0.50
2019-03-10T02:03:20.558Z,0.65
2019-03-10T02:06:13.351Z,0.95
2019-03-10T02:09:11.528Z,1.02
2019-03-10T02:12:00.688Z,0.40
2019-03-10T02:14:54.565Z,0.50
2019-03-10T02:17:47.632Z,2.70
2019-03-10T02:20:36.840Z,0.47
2019-03-10T02:23:29.638Z,0.60
2019-03-10T02:26:22.444Z,0.50
2019-03-10T02:29:15.240Z,0.50
2019-03-10T02:32:08.855Z,0.65
2019-03-10T02:35:02.889Z,0.40
2019-03-10T02:37:55.941Z,0.40
2019-03-10T02:40:48.742Z,0.40
2019-03-10T02:43:41.553Z,0.30
2019-03-10T02:46:34.348Z,0.40
2019-03-10T02:49:23.445Z,0.40
2019-03-10T02:52:16.876Z,0.30
2019-03-10T02:55:09.675Z,0.37
2019-03-10T02:57:58.827Z,0.40
2019-03-10T03:00:51.689Z,0.40
2019-03-10T03:03:44.488Z,0.40
2019-03-10T03:06:38.568Z,1.22
2019-03-10T03:09:31.367Z,0.40
2019-03-10T03:12:24.431Z,0.45
2019-03-10T03:15:17.224Z,0.45
2019-03-10T03:18:10.282Z,0.40
2019-03-10T03:21:03.077Z,0.40
2019-03-10T03:23:56.139Z,0.35
2019-03-10T03:26:49.191Z,0.40
2019-03-10T03:29:41.991Z,0.30
2019-03-10T03:32:35.606Z,0.30
2019-03-10T03:35:36.297Z,1.85
2019-03-10T03:38:29.187Z,0.40
2019-03-10T03:41:24.718Z,0.40
2019-03-10T03:44:17.510Z,0.40
2019-03-10T03:47:10.311Z,0.30
2019-03-10T03:50:03.114Z,0.50
2019-03-10T03:53:00.007Z,0.40
2019-03-10T03:55:52.808Z,1.47
2019-03-10T03:58:45.877Z,0.40
2019-03-10T04:01:47.367Z,0.35
2019-03-10T04:04:36.532Z,0.40
2019-03-10T04:07:25.619Z,0.40
2019-03-10T04:10:14.821Z,0.40
2019-03-10T04:13:07.564Z,1.25
2019-03-10T04:16:00.365Z,0.50
2019-03-10T04:18:53.416Z,0.40
2019-03-10T04:21:46.216Z,1.15
2019-03-10T04:24:39.017Z,0.50
2019-03-10T04:27:31.816Z,1.85
2019-03-10T04:30:25.896Z,0.60
2019-03-10T04:33:14.953Z,1.55
2019-03-10T04:36:07.916Z,0.50
2019-03-10T04:39:00.711Z,1.98
2019-03-10T04:41:53.512Z,0.50
2019-03-10T04:44:46.310Z,0.40
2019-03-10T04:47:39.113Z,0.90
2019-03-10T04:50:31.914Z,1.50
2019-03-10T04:53:24.710Z,0.57
2019-03-10T04:56:46.694Z,0.57
2019-03-10T04:59:39.495Z,2.17
2019-03-10T05:02:32.552Z,1.40
2019-03-10T05:05:25.862Z,0.50
2019-03-10T05:08:18.666Z,0.95
2019-03-10T05:11:07.784Z,1.57
2019-03-10T05:14:01.702Z,2.72
2019-03-10T05:16:54.504Z,1.92
2019-03-10T05:19:47.304Z,0.70
2019-03-10T05:22:40.104Z,2.42
2019-03-10T05:25:32.902Z,1.65
2019-03-10T05:28:25.704Z,3.35
2019-03-10T05:31:18.509Z,0.82
2019-03-10T05:34:11.314Z,1.25
2019-03-10T05:37:04.105Z,0.53
2019-03-10T05:39:56.901Z,0.65
2019-03-10T05:42:49.713Z,1.57
2019-03-10T05:45:43.525Z,3.70
2019-03-10T05:48:36.326Z,1.47
2019-03-10T05:51:29.128Z,0.80
2019-03-10T05:54:22.184Z,3.27
2019-03-10T05:57:16.016Z,0.60
2019-03-10T06:00:09.319Z,1.87
2019-03-10T06:03:02.375Z,0.40
2019-03-10T06:05:51.334Z,1.12
2019-03-10T06:08:44.143Z,2.67
2019-03-10T06:11:36.939Z,2.55
2019-03-10T06:14:29.735Z,0.50
2019-03-10T06:17:22.534Z,2.40
2019-03-10T06:20:15.336Z,0.68
2019-03-10T06:23:08.137Z,0.62
2019-03-10T06:26:00.939Z,0.85
2019-03-10T06:28:53.735Z,1.65
2019-03-10T06:31:46.550Z,0.85
2019-03-10T06:34:39.335Z,0.60
2019-03-10T06:37:32.392Z,0.50
2019-03-10T06:40:31.792Z,0.95
2019-03-10T06:43:14.921Z,1.47
2019-03-10T06:46:07.718Z,1.02
2019-03-10T06:49:00.522Z,0.53
2019-03-10T06:51:54.347Z,0.75
2019-03-10T06:54:47.408Z,0.50
2019-03-10T06:57:40.197Z,2.45
2019-03-10T07:00:33.527Z,0.90
2019-03-10T07:03:26.566Z,0.60
2019-03-10T07:06:19.376Z,1.35
2019-03-10T07:09:12.426Z,0.70
2019-03-10T07:12:05.225Z,0.62
2019-03-10T07:14:58.280Z,1.72
2019-03-10T07:17:51.336Z,1.90
2019-03-10T07:20:44.133Z,0.55
2019-03-10T07:23:37.191Z,1.85
2019-03-10T07:26:29.998Z,0.45
2019-03-10T07:29:43.528Z,0.60
2019-03-10T07:32:46.567Z,2.65
2019-03-10T07:39:15.431Z,1.35
2019-03-10T07:42:25.638Z,2.20
2019-03-10T07:45:37.902Z,1.90
2019-03-10T07:48:47.079Z,1.47
2019-03-10T07:55:09.547Z,0.70
2019-03-10T07:58:19.495Z,4.15
2019-03-10T08:01:26.375Z,0.90
2019-03-10T08:04:38.891Z,3.70
2019-03-10T08:07:43.214Z,1.10
2019-03-10T08:10:43.175Z,1.27
2019-03-10T08:13:46.216Z,1.82
2019-03-10T08:16:59.242Z,5.97
2019-03-10T08:20:03.559Z,3.70
2019-03-10T08:23:07.628Z,1.15
2019-03-10T08:26:12.711Z,0.85
2019-03-10T08:29:29.319Z,1.98
2019-03-10T08:32:33.647Z,5.15
2019-03-10T08:35:46.671Z,5.70
2019-03-10T08:38:50.732Z,6.87
2019-03-10T08:42:00.935Z,1.85
2019-03-10T08:45:03.719Z,3.50
2019-03-10T08:48:06.503Z,7.33
2019-03-10T08:51:10.826Z,4.08
2019-03-10T08:54:17.703Z,14.35
2019-03-10T08:57:34.312Z,7.53
2019-03-10T09:00:44.267Z,3.17
2019-03-10T09:03:49.607Z,9.45
2019-03-10T09:06:53.927Z,9.08
2019-03-10T09:09:58.509Z,13.80
2019-03-10T09:13:02.825Z,9.13
2019-03-10T09:16:14.313Z,14.70
2019-03-10T09:19:27.337Z,12.25
2019-03-10T09:22:31.660Z,7.70
2019-03-10T09:25:38.535Z,5.65
2019-03-10T09:28:42.865Z,14.30
2019-03-10T09:31:49.993Z,6.47
2019-03-10T09:35:06.092Z,15.80
2019-03-10T09:38:00.715Z,4.03
2019-03-10T09:41:03.979Z,10.85
2019-03-10T09:44:14.184Z,8.33
2019-03-10T09:47:30.537Z,10.15
2019-03-10T09:50:50.731Z,10.23
2019-03-10T09:53:53.767Z,8.55
2019-03-10T09:56:56.553Z,8.50
2019-03-10T10:00:03.689Z,3.17
2019-03-10T10:03:08.007Z,16.50
2019-03-10T10:06:12.330Z,12.37
2019-03-10T10:09:11.281Z,14.47
2019-03-10T10:12:13.764Z,5.25
2019-03-10T10:15:14.794Z,14.35
2019-03-10T10:18:21.935Z,12.28
2019-03-10T10:21:34.951Z,9.85
2019-03-10T10:24:41.836Z,15.72
2019-03-10T10:27:48.712Z,19.65
2019-03-10T10:30:51.495Z,13.22
2019-03-10T10:34:04.777Z,3.12
2019-03-10T10:40:32.104Z,7.60
2019-03-10T10:43:36.430Z,13.00
2019-03-10T10:46:39.208Z,9.73
2019-03-10T10:49:38.920Z,2.62
2019-03-10T10:52:55.017Z,12.13
2019-03-10T10:56:11.622Z,2.92
2019-03-10T10:59:04.457Z,6.55
2019-03-10T11:02:18.215Z,4.55
2019-03-10T11:05:29.451Z,9.10
2019-03-10T11:08:36.588Z,3.85
2019-03-10T11:11:42.038Z,13.05
2019-03-10T11:14:54.187Z,9.10
2019-03-10T11:18:09.257Z,11.75
2019-03-10T11:21:08.711Z,10.58
2019-03-10T11:24:13.032Z,13.88
2019-03-10T11:27:17.097Z,12.50
2019-03-10T11:30:33.457Z,8.48
2019-03-10T11:33:41.102Z,10.65
2019-03-10T11:37:04.104Z,5.53
2019-03-10T11:43:43.978Z,8.08
2019-03-10T11:46:51.112Z,4.00
2019-03-10T11:49:55.432Z,2.02
2019-03-10T11:52:59.752Z,5.78
2019-03-10T11:56:07.153Z,7.72
2019-03-10T11:59:14.537Z,5.90
2019-03-10T12:02:18.858Z,9.53
2019-03-10T12:05:23.689Z,7.42
2019-03-10T12:08:40.812Z,4.17
2019-03-10T12:11:30.090Z,1.95
2019-03-10T12:14:23.105Z,5.25
2019-03-10T12:17:27.405Z,2.98
2019-03-10T12:20:20.465Z,5.12
2019-03-10T12:23:14.025Z,6.58
2019-03-10T12:26:07.083Z,3.55
2019-03-10T12:28:59.898Z,5.55
2019-03-10T12:31:52.943Z,6.45
2019-03-10T12:34:46.008Z,4.70
2019-03-10T12:37:38.798Z,7.95
2019-03-10T12:40:33.639Z,3.42
2019-03-10T12:43:28.743Z,4.97
2019-03-10T12:46:21.801Z,3.67
2019-03-10T12:49:10.763Z,9.68
2019-03-10T12:52:03.562Z,6.15
2019-03-10T12:54:56.635Z,1.82
2019-03-10T12:57:49.671Z,5.28
2019-03-10T13:00:42.728Z,5.60
2019-03-10T13:03:35.811Z,8.30
2019-03-10T13:06:28.840Z,4.53
2019-03-10T13:09:21.896Z,4.72
2019-03-10T13:12:15.723Z,5.28
2019-03-10T13:15:08.776Z,4.45
2019-03-10T13:18:01.831Z,1.47
2019-03-10T13:20:54.888Z,2.58
2019-03-10T13:23:47.945Z,3.75
2019-03-10T13:26:41.686Z,4.62
2019-03-10T13:29:30.135Z,3.55
2019-03-10T13:32:23.785Z,3.60
2019-03-10T13:35:17.104Z,2.85
2019-03-10T13:38:10.787Z,4.37
2019-03-10T13:41:02.957Z,4.22
2019-03-10T13:43:56.268Z,5.25
2019-03-10T13:46:49.836Z,8.90
2019-03-10T13:49:43.154Z,1.87
2019-03-10T13:52:36.973Z,5.35
2019-03-10T13:55:30.036Z,1.80
2019-03-10T13:58:24.110Z,4.87
2019-03-10T14:01:14.602Z,5.12
2019-03-10T14:04:14.893Z,6.72
2019-03-10T14:07:07.880Z,6.62
2019-03-10T14:10:00.935Z,8.53
2019-03-10T14:12:53.990Z,8.08
2019-03-10T14:15:49.871Z,8.23
2019-03-10T14:18:43.181Z,9.88
2019-03-10T14:21:36.239Z,3.25
2019-03-10T14:24:29.290Z,7.50
2019-03-10T14:27:22.598Z,5.78
2019-03-10T14:30:15.657Z,6.08
2019-03-10T14:33:08.974Z,7.15
2019-03-10T14:36:02.806Z,9.08
2019-03-10T14:38:55.847Z,7.28
2019-03-10T14:41:49.954Z,8.75
2019-03-10T14:44:43.246Z,5.30
2019-03-10T14:47:36.298Z,4.25
2019-03-10T14:50:29.608Z,5.87
2019-03-10T14:53:22.921Z,11.68
2019-03-10T14:56:15.981Z,4.78
2019-03-10T14:59:09.289Z,6.83
2019-03-10T15:02:02.603Z,10.75
2019-03-10T15:04:55.656Z,10.80
2019-03-10T15:07:48.717Z,10.23
2019-03-10T15:10:41.774Z,13.95
2019-03-10T15:13:36.105Z,12.35
2019-03-10T15:16:29.166Z,9.50
2019-03-10T15:19:21.963Z,14.35
2019-03-10T15:22:15.273Z,10.40
2019-03-10T15:25:08.328Z,9.98
2019-03-10T15:28:01.393Z,9.90
2019-03-10T15:30:54.706Z,10.32
2019-03-10T15:33:47.752Z,9.03
2019-03-10T15:36:40.813Z,20.68
2019-03-10T15:39:30.033Z,16.07
2019-03-10T15:42:23.079Z,8.25
2019-03-10T15:45:16.904Z,4.62
2019-03-10T15:48:09.704Z,8.63
2019-03-10T15:51:15.048Z,7.37
2019-03-10T15:54:08.363Z,13.68
2019-03-10T15:57:01.420Z,17.17
2019-03-10T15:59:54.729Z,7.62
2019-03-10T16:02:47.531Z,8.58
2019-03-10T16:05:36.744Z,10.50
2019-03-10T16:08:29.813Z,10.60
2019-03-10T16:11:23.116Z,5.33
2019-03-10T16:14:16.167Z,4.62
2019-03-10T16:17:03.337Z,6.55
2019-03-10T16:19:56.393Z,9.65
2019-03-10T16:22:49.454Z,11.93
2019-03-10T16:25:42.512Z,10.15
2019-03-10T16:28:35.304Z,13.48
2019-03-10T16:31:28.366Z,2.10
2019-03-10T16:34:21.416Z,6.85
2019-03-10T16:37:14.471Z,10.78
2019-03-10T16:40:07.528Z,12.40
2019-03-10T16:43:00.843Z,8.23
2019-03-10T16:45:53.896Z,6.00
2019-03-10T16:48:41.324Z,12.43
2019-03-10T16:51:34.376Z,9.60
2019-03-10T16:54:29.738Z,6.58
2019-03-10T16:57:24.893Z,7.92
2019-03-10T17:00:16.108Z,12.98
2019-03-10T17:03:09.160Z,11.80
2019-03-10T17:06:02.219Z,4.87
2019-03-10T17:08:51.886Z,8.95
2019-03-10T17:11:45.260Z,13.65
2019-03-10T17:14:38.317Z,6.65
2019-03-10T17:17:31.374Z,10.32
2019-03-10T17:20:20.588Z,12.30
2019-03-10T17:23:13.639Z,5.40
2019-03-10T17:26:06.696Z,8.18
2019-03-10T17:28:59.497Z,8.75
2019-03-10T17:31:48.716Z,4.67
2019-03-10T17:34:41.773Z,10.80
2019-03-10T17:37:29.994Z,6.37
2019-03-10T17:40:23.024Z,6.83
2019-03-10T17:43:19.176Z,6.33
2019-03-10T17:46:12.457Z,4.08
2019-03-10T17:49:06.792Z,9.60
2019-03-10T17:51:59.849Z,4.83
2019-03-10T17:54:52.912Z,10.95
2019-03-10T17:57:46.218Z,7.45
2019-03-10T18:00:39.277Z,3.87
2019-03-10T18:03:33.101Z,9.78
2019-03-10T18:06:26.157Z,7.78
2019-03-10T18:10:14.766Z,8.73
2019-03-10T18:13:07.818Z,5.95
2019-03-10T18:16:00.871Z,9.58
2019-03-10T18:18:54.193Z,9.65
2019-03-10T18:21:47.244Z,2.30
2019-03-10T18:24:40.302Z,10.30
2019-03-10T18:27:33.356Z,12.70
2019-03-10T18:30:27.434Z,15.03
2019-03-10T18:33:20.747Z,9.93
2019-03-10T18:36:14.827Z,12.13
2019-03-10T18:39:07.882Z,11.83
2019-03-10T18:42:00.937Z,10.25
2019-03-10T18:44:54.508Z,4.90
2019-03-10T18:47:47.822Z,14.33
2019-03-10T18:50:41.132Z,13.65
2019-03-10T18:53:34.186Z,10.18
2019-03-10T18:56:27.242Z,12.60
2019-03-10T18:59:22.093Z,9.20
2019-03-10T19:02:09.737Z,16.90
2019-03-10T19:05:02.826Z,6.33
2019-03-10T19:07:55.881Z,15.30
2019-03-10T19:10:48.939Z,10.35
2019-03-10T19:13:42.503Z,9.78
2019-03-10T19:16:35.561Z,14.30
2019-03-10T19:19:28.878Z,10.78
2019-03-10T19:22:23.217Z,11.10
2019-03-10T19:25:16.782Z,7.90
2019-03-10T19:28:10.343Z,8.90
2019-03-10T19:31:03.659Z,10.40
2019-03-10T19:33:56.719Z,8.83
2019-03-10T19:36:57.079Z,12.95
2019-03-10T19:39:42.825Z,17.50
2019-03-10T19:42:35.878Z,9.05
2019-03-10T19:45:28.950Z,15.25
2019-03-10T19:48:22.010Z,7.72
2019-03-10T19:51:15.048Z,8.85
2019-03-10T19:54:19.373Z,11.30
2019-03-10T19:57:07.047Z,5.03
2019-03-10T20:00:00.252Z,10.40
2019-03-10T20:02:53.168Z,8.45
2019-03-10T20:05:46.474Z,7.95
2019-03-10T20:08:39.795Z,11.45
2019-03-10T20:11:32.847Z,9.83
2019-03-10T20:14:26.922Z,5.78
2019-03-10T20:17:19.976Z,8.60
2019-03-10T20:20:13.034Z,2.60
2019-03-10T20:23:09.419Z,5.60
2019-03-10T20:26:03.240Z,6.62
2019-03-10T20:28:56.298Z,9.45
2019-03-10T20:31:49.360Z,15.38
2019-03-10T20:34:43.695Z,11.18
2019-03-10T20:37:36.489Z,9.43
2019-03-10T20:40:25.970Z,15.95
2019-03-10T20:43:19.015Z,9.95
2019-03-10T20:46:12.071Z,5.60
2019-03-10T20:49:04.877Z,18.55
2019-03-10T20:51:57.928Z,5.83
2019-03-10T20:54:50.731Z,11.63
2019-03-10T20:57:43.528Z,4.65
2019-03-10T21:00:33.673Z,11.57
2019-03-10T21:03:26.567Z,7.03
2019-03-10T21:06:19.880Z,10.43
2019-03-10T21:09:13.449Z,6.03
2019-03-10T21:12:06.248Z,10.63
2019-03-10T21:14:59.302Z,4.75
2019-03-10T21:17:53.640Z,13.70
2019-03-10T21:20:46.699Z,13.48
2019-03-10T21:23:39.497Z,9.95
2019-03-10T21:26:32.295Z,12.00
2019-03-10T21:29:25.353Z,10.13
2019-03-10T21:32:18.920Z,9.10
2019-03-10T21:35:17.636Z,11.90
2019-03-10T21:38:04.518Z,11.25
2019-03-10T21:40:57.319Z,9.68
2019-03-10T21:43:46.568Z,5.92
2019-03-10T21:46:39.345Z,11.95
2019-03-10T21:49:32.137Z,9.25
2019-03-10T21:52:25.191Z,16.73
2019-03-10T21:55:17.992Z,3.77
2019-03-10T21:58:11.048Z,7.67
2019-03-10T22:01:06.920Z,11.68
2019-03-10T22:03:59.721Z,10.98
2019-03-10T22:06:52.521Z,11.48
2019-03-10T22:09:46.343Z,11.20
2019-03-10T22:12:39.722Z,3.30
2019-03-10T22:15:40.838Z,6.45
2019-03-10T22:18:22.444Z,6.97
2019-03-10T22:21:15.238Z,6.50
2019-03-10T22:24:08.294Z,4.10
2019-03-10T22:27:01.099Z,8.93
2019-03-10T22:29:54.151Z,8.85
2019-03-10T22:32:47.206Z,3.72
2019-03-10T22:35:40.266Z,6.62
2019-03-10T22:38:33.320Z,3.62
2019-03-10T22:41:26.118Z,7.67
2019-03-10T22:44:19.431Z,5.92
2019-03-10T22:47:12.489Z,4.65
2019-03-10T22:50:03.272Z,5.85
2019-03-10T22:52:55.786Z,8.78
2019-03-10T22:55:48.841Z,3.72
2019-03-10T22:58:41.896Z,7.37
2019-03-10T23:01:34.954Z,11.45
2019-03-10T23:04:28.010Z,6.42
2019-03-10T23:07:21.074Z,7.17
2019-03-10T23:10:14.120Z,11.80
2019-03-10T23:13:07.441Z,5.45
2019-03-10T23:16:00.494Z,7.90
2019-03-10T23:18:53.544Z,8.85
2019-03-10T23:21:53.511Z,8.40
2019-03-10T23:24:46.318Z,4.35
2019-03-10T23:27:39.367Z,4.45
2019-03-10T23:30:34.629Z,5.42
2019-03-10T23:33:25.735Z,3.92
2019-03-10T23:36:18.789Z,3.35
2019-03-10T23:39:11.593Z,2.98
2019-03-10T23:42:04.649Z,2.50
2019-03-10T23:44:57.446Z,3.42
2019-03-10T23:47:51.527Z,1.12
2019-03-10T23:50:44.585Z,0.90
2019-03-10T23:53:37.387Z,3.02
2019-03-10T23:56:30.441Z,0.70
2019-03-10T23:59:31.176Z,0.70
